createdAt,value
2018-05-06T00:04:08.317Z,99109
2018-05-06T00:06:37.616Z,99109
2018-05-06T00:09:05.917Z,99111
2018-05-06T00:11:33.496Z,99112
2018-05-06T00:14:01.597Z,99109
2018-05-06T00:16:29.007Z,99109
2018-05-06T00:18:59.347Z,99111
2018-05-06T00:21:26.926Z,99099
2018-05-06T00:23:54.447Z,99104
2018-05-06T00:26:22.776Z,99096
2018-05-06T00:28:50.226Z,99095
2018-05-06T00:31:18.869Z,99101
2018-05-06T00:33:46.872Z,99103
2018-05-06T00:36:15.317Z,99103
2018-05-06T00:38:44.449Z,99112
2018-05-06T00:41:11.787Z,99112
2018-05-06T00:43:39.297Z,99110
2018-05-06T00:46:06.590Z,99111
2018-05-06T00:48:48.947Z,99105
2018-05-06T00:51:16.606Z,99120
2018-05-06T00:53:44.266Z,99112
2018-05-06T00:56:11.768Z,99114
2018-05-06T00:58:40.076Z,99107
2018-05-06T01:01:09.870Z,99104
2018-05-06T01:03:37.286Z,99111
2018-05-06T01:06:04.827Z,99117
2018-05-06T01:08:32.647Z,99117
2018-05-06T01:11:00.036Z,99111
2018-05-06T01:13:27.277Z,99107
2018-05-06T01:15:54.766Z,99110
2018-05-06T01:18:29.397Z,99110
2018-05-06T01:20:56.687Z,99115
2018-05-06T01:23:24.207Z,99113
2018-05-06T01:25:51.608Z,99121
2018-05-06T01:28:20.856Z,99126
2018-05-06T01:30:48.167Z,99121
2018-05-06T01:33:15.596Z,99123
2018-05-06T01:35:43.167Z,99126
2018-05-06T01:38:10.608Z,99122
2018-05-06T01:40:38.957Z,99123
2018-05-06T01:43:07.846Z,99121
2018-05-06T01:45:35.386Z,99120
2018-05-06T01:48:02.797Z,99118
2018-05-06T01:50:30.237Z,99122
2018-05-06T01:52:57.687Z,99128
2018-05-06T01:55:24.885Z,99127
2018-05-06T01:57:52.526Z,99125
2018-05-06T02:00:20.572Z,99128
2018-05-06T02:02:48.058Z,99118
2018-05-06T02:05:16.046Z,99117
2018-05-06T02:07:45.607Z,99107
2018-05-06T02:10:13.397Z,99111
2018-05-06T02:12:40.917Z,99105
2018-05-06T02:15:11.526Z,99110
2018-05-06T02:17:39.697Z,99107
2018-05-06T02:20:07.849Z,99115
2018-05-06T02:22:36.106Z,99113
2018-05-06T02:25:03.707Z,99108
2018-05-06T02:27:32.997Z,99109
2018-05-06T02:30:00.467Z,99112
2018-05-06T02:32:28.376Z,99111
2018-05-06T02:34:57.367Z,99113
2018-05-06T02:37:24.907Z,99113
2018-05-06T02:39:53.367Z,99114
2018-05-06T02:42:23.017Z,99110
2018-05-06T02:44:50.577Z,99107
2018-05-06T02:47:17.997Z,99106
2018-05-06T02:49:45.266Z,99102
2018-05-06T02:52:12.597Z,99102
2018-05-06T02:54:40.477Z,99113
2018-05-06T02:57:07.832Z,99107
2018-05-06T02:59:35.097Z,99105
2018-05-06T03:02:02.687Z,99112
2018-05-06T03:04:30.107Z,99100
2018-05-06T03:06:58.377Z,99107
2018-05-06T03:09:25.838Z,99104
2018-05-06T03:11:53.719Z,99109
2018-05-06T03:14:21.787Z,99113
2018-05-06T03:16:50.239Z,99105
2018-05-06T03:19:18.607Z,99113
2018-05-06T03:21:46.098Z,99095
2018-05-06T03:24:13.692Z,99102
2018-05-06T03:26:40.927Z,99111
2018-05-06T03:29:09.709Z,99111
2018-05-06T03:31:38.028Z,99120
2018-05-06T03:34:05.437Z,99120
2018-05-06T03:36:33.467Z,99124
2018-05-06T03:39:01.038Z,99131
2018-05-06T03:41:28.567Z,99126
2018-05-06T03:43:56.238Z,99127
2018-05-06T03:46:23.477Z,99125
2018-05-06T03:48:51.038Z,99127
2018-05-06T03:51:18.617Z,99135
2018-05-06T03:53:45.848Z,99138
2018-05-06T03:59:56.818Z,99143
2018-05-06T04:02:40.167Z,99139
2018-05-06T04:05:07.526Z,99144
2018-05-06T04:07:35.217Z,99147
2018-05-06T04:10:02.761Z,99142
2018-05-06T04:12:30.048Z,99141
2018-05-06T04:14:57.436Z,99135
2018-05-06T04:17:24.738Z,99136
2018-05-06T04:19:53.056Z,99142
2018-05-06T04:22:21.317Z,99134
2018-05-06T04:24:49.716Z,99134
2018-05-06T04:27:17.000Z,99138
2018-05-06T04:29:44.508Z,99144
2018-05-06T04:32:13.177Z,99143
2018-05-06T04:34:40.447Z,99148
2018-05-06T04:37:08.487Z,99147
2018-05-06T04:39:36.777Z,99145
2018-05-06T04:42:04.197Z,99146
2018-05-06T04:44:33.657Z,99150
2018-05-06T04:47:03.000Z,99155
2018-05-06T04:49:30.739Z,99152
2018-05-06T04:51:57.977Z,99159
2018-05-06T04:54:25.447Z,99155
2018-05-06T04:56:52.900Z,99165
2018-05-06T04:59:21.918Z,99160
2018-05-06T05:01:49.427Z,99162
2018-05-06T05:04:16.718Z,99150
2018-05-06T05:06:44.107Z,99154
2018-05-06T05:09:11.526Z,99150
2018-05-06T05:11:39.007Z,99154
2018-05-06T05:14:06.327Z,99159
2018-05-06T05:16:34.768Z,99162
2018-05-06T05:19:02.068Z,99163
2018-05-06T05:21:29.607Z,99168
2018-05-06T05:23:57.847Z,99165
2018-05-06T05:26:25.607Z,99165
2018-05-06T05:28:52.938Z,99168
2018-05-06T05:31:20.399Z,99162
2018-05-06T05:33:48.058Z,99164
2018-05-06T05:36:15.589Z,99162
2018-05-06T05:38:44.417Z,99168
2018-05-06T05:41:11.779Z,99170
2018-05-06T05:43:39.367Z,99169
2018-05-06T05:46:06.528Z,99174
2018-05-06T05:48:34.707Z,99179
2018-05-06T05:51:02.367Z,99177
2018-05-06T05:53:30.677Z,99172
2018-05-06T05:55:58.917Z,99180
2018-05-06T05:58:27.490Z,99177
2018-05-06T06:00:55.607Z,99180
2018-05-06T06:03:22.957Z,99178
2018-05-06T06:05:50.207Z,99175
2018-05-06T06:08:17.918Z,99183
2018-05-06T06:10:45.197Z,99182
2018-05-06T06:13:14.227Z,99183
2018-05-06T06:15:41.647Z,99186
2018-05-06T06:18:09.927Z,99179
2018-05-06T06:20:37.367Z,99177
2018-05-06T06:23:06.428Z,99177
2018-05-06T06:25:33.553Z,99174
2018-05-06T06:28:01.018Z,99173
2018-05-06T06:30:28.497Z,99174
2018-05-06T06:32:55.645Z,99172
2018-05-06T06:35:23.320Z,99163
2018-05-06T06:37:50.789Z,99157
2018-05-06T06:40:18.811Z,99160
2018-05-06T06:42:46.270Z,99165
2018-05-06T06:45:13.781Z,99166
2018-05-06T06:47:41.989Z,99161
2018-05-06T06:50:09.439Z,99153
2018-05-06T06:52:36.862Z,99151
2018-05-06T06:55:04.457Z,99148
2018-05-06T06:57:32.129Z,99154
2018-05-06T06:59:59.787Z,99155
2018-05-06T07:02:27.307Z,99154
2018-05-06T07:04:55.567Z,99155
2018-05-06T07:07:23.017Z,99156
2018-05-06T07:09:51.027Z,99150
2018-05-06T07:12:18.684Z,99152
2018-05-06T07:14:46.524Z,99160
2018-05-06T07:17:14.730Z,99162
2018-05-06T07:19:41.878Z,99164
2018-05-06T07:22:09.351Z,99161
2018-05-06T07:24:36.433Z,99155
2018-05-06T07:27:03.553Z,99154
2018-05-06T07:29:31.147Z,99160
2018-05-06T07:31:58.969Z,99157
2018-05-06T07:34:26.437Z,99154
2018-05-06T07:36:53.677Z,99159
2018-05-06T07:39:21.469Z,99167
2018-05-06T07:41:48.927Z,99164
2018-05-06T07:44:16.229Z,99164
2018-05-06T07:46:43.777Z,99162
2018-05-06T07:49:12.107Z,99162
2018-05-06T07:51:39.627Z,99163
2018-05-06T07:54:07.367Z,99164
2018-05-06T07:56:34.907Z,99156
2018-05-06T07:59:02.477Z,99160
2018-05-06T08:01:30.077Z,99154
2018-05-06T08:03:57.518Z,99161
2018-05-06T08:06:25.738Z,99160
2018-05-06T08:08:53.367Z,99152
2018-05-06T08:11:20.828Z,99151
2018-05-06T08:13:48.617Z,99153
2018-05-06T08:16:16.180Z,99146
2018-05-06T08:18:43.729Z,99149
2018-05-06T08:21:11.358Z,99152
2018-05-06T08:23:38.815Z,99153
2018-05-06T08:26:06.552Z,99156
2018-05-06T08:28:33.728Z,99156
2018-05-06T08:31:01.348Z,99153
2018-05-06T08:33:28.535Z,99144
2018-05-06T08:35:56.107Z,99149
2018-05-06T08:38:23.507Z,99147
2018-05-06T08:40:51.438Z,99141
2018-05-06T08:43:18.858Z,99142
2018-05-06T08:45:46.293Z,99144
2018-05-06T08:48:13.828Z,99142
2018-05-06T08:50:41.718Z,99135
2018-05-06T08:53:09.488Z,99133
2018-05-06T08:55:36.788Z,99133
2018-05-06T08:58:04.618Z,99131
2018-05-06T09:00:31.978Z,99129
2018-05-06T09:03:01.548Z,99124
2018-05-06T09:05:29.667Z,99127
2018-05-06T09:07:57.489Z,99131
2018-05-06T09:10:24.977Z,99122
2018-05-06T09:12:52.207Z,99115
2018-05-06T09:15:20.038Z,99114
2018-05-06T09:17:48.029Z,99116
2018-05-06T09:20:15.467Z,99115
2018-05-06T09:22:42.947Z,99116
2018-05-06T09:25:10.148Z,99110
2018-05-06T09:27:37.945Z,99112
2018-05-06T09:30:05.757Z,99111
2018-05-06T09:32:34.748Z,99110
2018-05-06T09:35:02.608Z,99110
2018-05-06T09:37:30.167Z,99108
2018-05-06T09:39:58.807Z,99096
2018-05-06T09:42:26.288Z,99101
2018-05-06T09:44:53.748Z,99096
2018-05-06T09:47:21.238Z,99094
2018-05-06T09:49:49.479Z,99094
2018-05-06T09:52:17.318Z,99089
2018-05-06T09:54:44.828Z,99098
2018-05-06T09:57:13.648Z,99100
2018-05-06T09:59:41.417Z,99090
2018-05-06T10:02:08.907Z,99088
2018-05-06T10:04:36.898Z,99080
2018-05-06T10:07:04.479Z,99086
2018-05-06T10:09:32.118Z,99088
2018-05-06T10:11:59.977Z,99096
2018-05-06T10:14:27.443Z,99086
2018-05-06T10:16:54.987Z,99077
2018-05-06T10:19:23.172Z,99082
2018-05-06T10:21:52.789Z,99078
2018-05-06T10:24:21.517Z,99077
2018-05-06T10:26:49.019Z,99080
2018-05-06T10:29:16.488Z,99067
2018-05-06T10:31:43.887Z,99067
2018-05-06T10:34:11.687Z,99063
2018-05-06T10:36:39.457Z,99073
2018-05-06T10:39:08.628Z,99067
2018-05-06T10:41:37.067Z,99064
2018-05-06T10:44:05.573Z,99064
2018-05-06T10:46:34.395Z,99066
2018-05-06T10:49:04.092Z,99064
2018-05-06T10:51:33.618Z,99047
2018-05-06T10:54:01.419Z,99052
2018-05-06T10:56:28.947Z,99054
2018-05-06T10:58:56.317Z,99049
2018-05-06T11:01:24.350Z,99050
2018-05-06T11:03:53.110Z,99042
2018-05-06T11:06:21.438Z,99038
2018-05-06T11:08:52.287Z,99035
2018-05-06T11:11:20.908Z,99031
2018-05-06T11:13:48.587Z,99033
2018-05-06T11:16:15.987Z,99024
2018-05-06T11:18:43.691Z,99024
2018-05-06T11:21:11.318Z,99018
2018-05-06T11:23:39.547Z,99010
2018-05-06T11:26:07.487Z,99010
2018-05-06T11:28:36.047Z,99014
2018-05-06T11:31:03.588Z,99007
2018-05-06T11:33:32.237Z,99005
2018-05-06T11:35:59.537Z,99005
2018-05-06T11:38:26.987Z,99004
2018-05-06T11:40:54.453Z,98996
2018-05-06T11:43:22.206Z,98999
2018-05-06T11:45:50.319Z,98991
2018-05-06T11:48:17.817Z,98988
2018-05-06T11:50:45.127Z,98990
2018-05-06T11:53:12.857Z,98991
2018-05-06T11:55:41.929Z,98990
2018-05-06T11:58:10.007Z,98981
2018-05-06T12:00:38.426Z,98986
2018-05-06T12:03:06.146Z,98979
2018-05-06T12:05:33.578Z,98988
2018-05-06T12:08:01.910Z,98971
2018-05-06T12:10:29.457Z,98971
2018-05-06T12:12:56.878Z,98975
2018-05-06T12:15:25.447Z,98979
2018-05-06T12:17:53.161Z,98976
2018-05-06T12:20:20.397Z,98976
2018-05-06T12:22:49.947Z,98973
2018-05-06T12:25:17.617Z,98974
2018-05-06T12:27:46.746Z,98973
2018-05-06T12:30:14.367Z,98972
2018-05-06T12:32:41.917Z,98963
2018-05-06T12:35:11.237Z,98965
2018-05-06T12:37:38.519Z,98965
2018-05-06T12:40:06.942Z,98965
2018-05-06T12:42:34.672Z,98954
2018-05-06T12:45:03.339Z,98950
2018-05-06T12:47:31.648Z,98948
2018-05-06T12:49:59.873Z,98947
2018-05-06T12:52:27.781Z,98948
2018-05-06T12:54:55.847Z,98942
2018-05-06T12:57:24.184Z,98945
2018-05-06T12:59:51.597Z,98938
2018-05-06T13:02:19.951Z,98939
2018-05-06T13:04:47.636Z,98941
2018-05-06T13:07:15.919Z,98934
2018-05-06T13:09:43.406Z,98922
2018-05-06T13:12:11.236Z,98918
2018-05-06T13:14:39.915Z,98920
2018-05-06T13:17:08.256Z,98916
2018-05-06T13:19:35.887Z,98914
2018-05-06T13:22:03.397Z,98897
2018-05-06T13:24:31.705Z,98910
2018-05-06T13:26:59.277Z,98909
2018-05-06T13:29:26.937Z,98906
2018-05-06T13:31:54.612Z,98905
2018-05-06T13:34:22.338Z,98905
2018-05-06T13:36:50.506Z,98896
2018-05-06T13:39:18.747Z,98899
2018-05-06T13:41:46.238Z,98905
2018-05-06T13:44:14.688Z,98905
2018-05-06T13:46:42.127Z,98896
2018-05-06T13:49:09.978Z,98905
2018-05-06T13:51:37.477Z,98895
2018-05-06T13:54:05.088Z,98895
2018-05-06T13:56:32.528Z,98883
2018-05-06T13:59:02.710Z,98880
2018-05-06T14:01:30.123Z,98881
2018-05-06T14:03:57.497Z,98880
2018-05-06T14:06:24.897Z,98881
2018-05-06T14:08:53.329Z,98876
2018-05-06T14:11:21.057Z,98870
2018-05-06T14:13:48.478Z,98872
2018-05-06T14:16:16.708Z,98863
2018-05-06T14:18:44.154Z,98869
2018-05-06T14:21:11.739Z,98865
2018-05-06T14:23:39.317Z,98860
2018-05-06T14:26:06.907Z,98854
2018-05-06T14:28:34.677Z,98854
2018-05-06T14:31:02.877Z,98853
2018-05-06T14:33:30.377Z,98854
2018-05-06T14:35:57.869Z,98844
2018-05-06T14:38:25.437Z,98844
2018-05-06T14:40:52.907Z,98839
2018-05-06T14:43:20.463Z,98846
2018-05-06T14:45:47.952Z,98852
2018-05-06T14:48:15.626Z,98840
2018-05-06T14:50:43.267Z,98840
2018-05-06T14:53:10.678Z,98843
2018-05-06T14:55:38.351Z,98833
2018-05-06T14:58:05.817Z,98838
2018-05-06T15:00:33.727Z,98835
2018-05-06T15:03:01.248Z,98830
2018-05-06T15:05:28.877Z,98832
2018-05-06T15:07:56.267Z,98833
2018-05-06T15:10:23.870Z,98828
2018-05-06T15:12:51.718Z,98830
2018-05-06T15:15:19.597Z,98826
2018-05-06T15:17:47.227Z,98825
2018-05-06T15:20:14.887Z,98829
2018-05-06T15:22:42.307Z,98829
2018-05-06T15:25:09.860Z,98821
2018-05-06T15:27:38.077Z,98817
2018-05-06T15:30:05.937Z,98817
2018-05-06T15:32:33.388Z,98816
2018-05-06T15:35:00.816Z,98812
2018-05-06T15:37:29.137Z,98811
2018-05-06T15:39:56.537Z,98815
2018-05-06T15:42:24.360Z,98816
2018-05-06T15:44:51.898Z,98813
2018-05-06T15:47:19.336Z,98806
2018-05-06T15:49:46.840Z,98811
2018-05-06T15:52:14.326Z,98813
2018-05-06T15:54:42.717Z,98806
2018-05-06T15:57:11.173Z,98807
2018-05-06T15:59:38.607Z,98809
2018-05-06T16:02:19.007Z,98810
2018-05-06T16:04:47.307Z,98812
2018-05-06T16:07:15.618Z,98804
2018-05-06T16:09:42.827Z,98806
2018-05-06T16:12:10.317Z,98800
2018-05-06T16:14:37.767Z,98803
2018-05-06T16:17:04.844Z,98804
2018-05-06T16:19:32.415Z,98801
2018-05-06T16:21:59.887Z,98800
2018-05-06T16:24:28.337Z,98802
2018-05-06T16:26:55.874Z,98799
2018-05-06T16:29:23.427Z,98801
2018-05-06T16:31:50.999Z,98800
2018-05-06T16:34:18.152Z,98802
2018-05-06T16:36:45.899Z,98797
2018-05-06T16:39:13.537Z,98794
2018-05-06T16:41:41.098Z,98795
2018-05-06T16:44:08.719Z,98799
2018-05-06T16:46:36.417Z,98802
2018-05-06T16:49:04.130Z,98806
2018-05-06T16:51:31.818Z,98804
2018-05-06T16:53:59.387Z,98796
2018-05-06T16:56:27.748Z,98801
2018-05-06T16:58:55.268Z,98803
2018-05-06T17:01:23.023Z,98799
2018-05-06T17:03:50.779Z,98804
2018-05-06T17:06:18.707Z,98800
2018-05-06T17:08:47.207Z,98807
2018-05-06T17:11:15.789Z,98800
2018-05-06T17:13:44.048Z,98808
2018-05-06T17:16:15.257Z,98810
2018-05-06T17:18:43.735Z,98805
2018-05-06T17:23:52.370Z,98812
2018-05-06T17:26:21.067Z,98817
2018-05-06T17:28:48.645Z,98809
2018-05-06T17:31:17.076Z,98819
2018-05-06T17:33:44.506Z,98818
2018-05-06T17:36:13.326Z,98820
2018-05-06T17:38:40.935Z,98817
2018-05-06T17:41:08.726Z,98816
2018-05-06T17:43:36.126Z,98823
2018-05-06T17:46:03.816Z,98814
2018-05-06T17:48:31.477Z,98821
2018-05-06T17:50:59.046Z,98818
2018-05-06T17:53:27.386Z,98818
2018-05-06T17:55:55.127Z,98822
2018-05-06T17:58:22.676Z,98824
2018-05-06T18:00:50.295Z,98830
2018-05-06T18:03:18.278Z,98832
2018-05-06T18:05:46.525Z,98836
2018-05-06T18:08:14.185Z,98845
2018-05-06T18:10:41.655Z,98845
2018-05-06T18:13:09.226Z,98840
2018-05-06T18:15:37.665Z,98839
2018-05-06T18:18:05.265Z,98841
2018-05-06T18:20:33.736Z,98850
2018-05-06T18:23:03.365Z,98849
2018-05-06T18:25:32.316Z,98859
2018-05-06T18:28:00.505Z,98859
2018-05-06T18:30:30.347Z,98864
2018-05-06T18:32:57.915Z,98864
2018-05-06T18:35:25.625Z,98867
2018-05-06T18:40:28.176Z,98868
2018-05-06T18:42:55.889Z,98875
2018-05-06T18:45:24.065Z,98874
2018-05-06T18:47:51.825Z,98876
2018-05-06T18:50:23.346Z,98890
2018-05-06T18:52:51.286Z,98883
2018-05-06T18:55:18.895Z,98889
2018-05-06T18:57:47.976Z,98890
2018-05-06T19:00:16.086Z,98888
2018-05-06T19:02:44.172Z,98892
2018-05-06T19:05:12.166Z,98892
2018-05-06T19:07:39.566Z,98896
2018-05-06T19:10:09.325Z,98896
2018-05-06T19:12:39.425Z,98897
2018-05-06T19:15:09.636Z,98896
2018-05-06T19:17:38.937Z,98901
2018-05-06T19:20:09.806Z,98898
2018-05-06T19:22:38.717Z,98897
2018-05-06T19:25:10.536Z,98901
2018-05-06T19:27:37.876Z,98904
2018-05-06T19:30:06.008Z,98899
2018-05-06T19:32:33.607Z,98897
2018-05-06T19:35:06.890Z,98898
2018-05-06T19:37:37.965Z,98895
2018-05-06T19:42:51.016Z,98898
2018-05-06T19:45:20.627Z,98908
2018-05-06T19:47:48.616Z,98916
2018-05-06T19:50:16.116Z,98920
2018-05-06T19:52:48.895Z,98925
2018-05-06T19:55:19.120Z,98921
2018-05-06T19:57:48.176Z,98930
2018-05-06T20:00:15.526Z,98928
2018-05-06T20:02:44.149Z,98923
2018-05-06T20:05:12.696Z,98925
2018-05-06T20:07:42.185Z,98929
2018-05-06T20:10:13.066Z,98943
2018-05-06T20:12:40.440Z,98946
2018-05-06T20:15:13.116Z,98942
2018-05-06T20:17:41.389Z,98945
2018-05-06T20:20:09.636Z,98944
2018-05-06T20:22:38.088Z,98943
2018-05-06T20:25:07.088Z,98953
2018-05-06T20:27:34.598Z,98961
2018-05-06T20:30:02.286Z,98963
2018-05-06T20:32:31.286Z,98962
2018-05-06T20:34:58.755Z,98964
2018-05-06T20:37:29.645Z,98967
2018-05-06T20:39:57.405Z,98967
2018-05-06T20:42:27.185Z,98978
2018-05-06T20:44:57.226Z,98981
2018-05-06T20:47:27.815Z,98996
2018-05-06T20:49:56.817Z,98998
2018-05-06T20:52:24.685Z,99002
2018-05-06T20:54:52.976Z,99008
2018-05-06T20:57:23.515Z,99004
2018-05-06T20:59:52.595Z,99014
2018-05-06T21:02:22.596Z,99004
2018-05-06T21:04:50.365Z,99010
2018-05-06T21:07:19.245Z,99010
2018-05-06T21:09:47.946Z,99016
2018-05-06T21:12:15.676Z,99013
2018-05-06T21:14:43.218Z,99004
2018-05-06T21:17:11.025Z,99011
2018-05-06T21:19:39.795Z,99012
2018-05-06T21:22:09.216Z,99014
2018-05-06T21:24:40.185Z,99008
2018-05-06T21:27:09.806Z,99013
2018-05-06T21:29:37.380Z,99014
2018-05-06T21:32:05.570Z,99013
2018-05-06T21:34:35.296Z,99012
2018-05-06T21:37:03.320Z,99010
2018-05-06T21:39:33.646Z,99017
2018-05-06T21:42:01.927Z,99019
2018-05-06T21:44:29.486Z,99020
2018-05-06T21:46:57.635Z,99024
2018-05-06T21:49:25.398Z,99023
2018-05-06T21:51:54.047Z,99030
2018-05-06T21:54:22.618Z,99026
2018-05-06T21:56:50.176Z,99018
2018-05-06T21:59:17.726Z,99016
2018-05-06T22:01:45.159Z,99019
2018-05-06T22:04:13.078Z,99017
2018-05-06T22:06:40.868Z,99015
2018-05-06T22:09:08.406Z,99021
2018-05-06T22:11:35.885Z,99014
2018-05-06T22:14:03.615Z,99012
2018-05-06T22:16:31.465Z,99016
2018-05-06T22:19:01.450Z,99018
2018-05-06T22:21:29.836Z,99017
2018-05-06T22:23:58.895Z,99016
2018-05-06T22:26:27.126Z,99017
2018-05-06T22:28:54.606Z,99013
2018-05-06T22:31:22.086Z,99015
2018-05-06T22:33:49.616Z,99014
2018-05-06T22:36:18.696Z,99017
2018-05-06T22:38:46.335Z,99023
2018-05-06T22:41:14.985Z,99015
2018-05-06T22:43:42.426Z,99011
2018-05-06T22:46:10.176Z,99015
2018-05-06T22:48:37.575Z,99014
2018-05-06T22:51:05.669Z,99006
2018-05-06T22:53:33.216Z,99003
2018-05-06T22:56:00.704Z,98996
2018-05-06T22:58:28.315Z,98997
2018-05-06T23:00:57.585Z,98993
2018-05-06T23:03:25.275Z,98991
2018-05-06T23:05:53.074Z,98993
2018-05-06T23:08:20.535Z,98998
2018-05-06T23:10:48.555Z,98992
2018-05-06T23:13:17.716Z,98987
2018-05-06T23:15:48.368Z,98987
2018-05-06T23:18:18.595Z,98983
2018-05-06T23:20:48.318Z,98986
2018-05-06T23:23:21.695Z,98979
2018-05-06T23:25:51.274Z,98980
2018-05-06T23:28:19.075Z,98980
2018-05-06T23:30:46.546Z,98981
2018-05-06T23:33:14.225Z,98978
2018-05-06T23:35:41.645Z,98966
2018-05-06T23:38:09.016Z,98966
2018-05-06T23:40:36.568Z,98964
2018-05-06T23:43:06.215Z,98956
2018-05-06T23:45:36.915Z,98960
2018-05-06T23:48:06.516Z,98958
2018-05-06T23:50:35.458Z,98948
2018-05-06T23:53:03.605Z,98956
2018-05-06T23:55:37.755Z,98954
2018-05-06T23:58:05.725Z,98952
